sensor_id;sensor_type;location;lat;lon;timestamp;temperature;humidity
22491;DHT22;11412;50.802;4.350;2022-09-13T00:00:58;18.40;99.90
22491;DHT22;11412;50.802;4.350;2022-09-13T00:03:24;18.40;99.90
22491;DHT22;11412;50.802;4.350;2022-09-13T00:05:50;18.40;99.90
22491;DHT22;11412;50.802;4.350;2022-09-13T00:08:16;18.40;99.90
22491;DHT22;11412;50.802;4.350;2022-09-13T00:10:42;18.40;99.90
22491;DHT22;11412;50.802;4.350;2022-09-13T00:13:10;18.50;99.90
22491;DHT22;11412;50.802;4.350;2022-09-13T00:15:50;18.50;99.90
22491;DHT22;11412;50.802;4.350;2022-09-13T00:18:17;18.50;99.90
22491;DHT22;11412;50.802;4.350;2022-09-13T00:20:43;18.50;99.90
22491;DHT22;11412;50.802;4.350;2022-09-13T00:23:09;18.50;99.90
22491;DHT22;11412;50.802;4.350;2022-09-13T00:25:35;18.40;99.90
22491;DHT22;11412;50.802;4.350;2022-09-13T00:28:01;18.40;99.90
22491;DHT22;11412;50.802;4.350;2022-09-13T00:30:27;18.50;99.90
22491;DHT22;11412;50.802;4.350;2022-09-13T00:32:53;18.50;99.90
22491;DHT22;11412;50.802;4.350;2022-09-13T00:35:19;18.50;99.90
22491;DHT22;11412;50.802;4.350;2022-09-13T00:37:44;18.40;99.90
22491;DHT22;11412;50.802;4.350;2022-09-13T00:40:10;18.40;99.90
22491;DHT22;11412;50.802;4.350;2022-09-13T00:42:36;18.50;99.90
22491;DHT22;11412;50.802;4.350;2022-09-13T00:45:14;18.50;99.90
22491;DHT22;11412;50.802;4.350;2022-09-13T00:47:45;18.50;99.90
22491;DHT22;11412;50.802;4.350;2022-09-13T00:53:35;18.50;99.90
22491;DHT22;11412;50.802;4.350;2022-09-13T00:58:38;18.60;99.90
22491;DHT22;11412;50.802;4.350;2022-09-13T01:01:08;18.60;99.90
22491;DHT22;11412;50.802;4.350;2022-09-13T01:03:34;18.70;99.90
22491;DHT22;11412;50.802;4.350;2022-09-13T01:06:17;18.60;99.90
22491;DHT22;11412;50.802;4.350;2022-09-13T01:08:48;18.70;99.90
22491;DHT22;11412;50.802;4.350;2022-09-13T01:11:45;18.70;99.90
22491;DHT22;11412;50.802;4.350;2022-09-13T01:14:13;18.70;99.90
22491;DHT22;11412;50.802;4.350;2022-09-13T01:16:39;18.80;99.90
22491;DHT22;11412;50.802;4.350;2022-09-13T01:19:05;18.80;99.90
22491;DHT22;11412;50.802;4.350;2022-09-13T01:33:42;18.90;99.90
22491;DHT22;11412;50.802;4.350;2022-09-13T01:37:12;18.90;99.90
22491;DHT22;11412;50.802;4.350;2022-09-13T01:42:06;18.90;99.90
22491;DHT22;11412;50.802;4.350;2022-09-13T01:47:30;18.90;99.90
22491;DHT22;11412;50.802;4.350;2022-09-13T01:52:37;18.90;99.90
22491;DHT22;11412;50.802;4.350;2022-09-13T01:55:41;18.90;99.90
22491;DHT22;11412;50.802;4.350;2022-09-13T01:58:04;18.90;99.90
22491;DHT22;11412;50.802;4.350;2022-09-13T02:00:40;18.90;99.90
22491;DHT22;11412;50.802;4.350;2022-09-13T02:03:13;18.90;99.90
22491;DHT22;11412;50.802;4.350;2022-09-13T02:06:07;18.90;99.90
22491;DHT22;11412;50.802;4.350;2022-09-13T02:08:34;18.90;99.90
22491;DHT22;11412;50.802;4.350;2022-09-13T02:11:10;18.90;99.90
22491;DHT22;11412;50.802;4.350;2022-09-13T02:13:45;18.90;99.90
22491;DHT22;11412;50.802;4.350;2022-09-13T02:16:20;18.90;99.90
22491;DHT22;11412;50.802;4.350;2022-09-13T02:18:54;18.90;99.90
22491;DHT22;11412;50.802;4.350;2022-09-13T02:21:28;18.80;99.90
22491;DHT22;11412;50.802;4.350;2022-09-13T02:24:23;18.90;99.90
22491;DHT22;11412;50.802;4.350;2022-09-13T02:26:51;18.80;99.90
22491;DHT22;11412;50.802;4.350;2022-09-13T02:29:19;18.80;99.90
22491;DHT22;11412;50.802;4.350;2022-09-13T02:32:06;18.70;99.90
22491;DHT22;11412;50.802;4.350;2022-09-13T02:37:16;18.70;99.90
22491;DHT22;11412;50.802;4.350;2022-09-13T02:39:50;18.70;99.90
22491;DHT22;11412;50.802;4.350;2022-09-13T02:42:34;18.60;99.90
22491;DHT22;11412;50.802;4.350;2022-09-13T02:45:04;18.60;99.90
22491;DHT22;11412;50.802;4.350;2022-09-13T02:48:03;18.60;99.90
22491;DHT22;11412;50.802;4.350;2022-09-13T02:58:50;18.50;99.90
22491;DHT22;11412;50.802;4.350;2022-09-13T03:01:17;18.50;99.90
22491;DHT22;11412;50.802;4.350;2022-09-13T03:03:43;18.50;99.90
22491;DHT22;11412;50.802;4.350;2022-09-13T03:06:09;18.60;99.90
22491;DHT22;11412;50.802;4.350;2022-09-13T03:08:35;18.60;99.90
22491;DHT22;11412;50.802;4.350;2022-09-13T03:11:12;18.60;99.90
22491;DHT22;11412;50.802;4.350;2022-09-13T03:28:12;18.50;99.90
22491;DHT22;11412;50.802;4.350;2022-09-13T03:30:48;18.50;99.90
22491;DHT22;11412;50.802;4.350;2022-09-13T03:33:31;18.50;99.90
22491;DHT22;11412;50.802;4.350;2022-09-13T03:41:40;18.50;99.90
22491;DHT22;11412;50.802;4.350;2022-09-13T03:44:10;18.50;99.90
22491;DHT22;11412;50.802;4.350;2022-09-13T03:46:43;18.50;99.90
22491;DHT22;11412;50.802;4.350;2022-09-13T03:49:14;18.50;99.90
22491;DHT22;11412;50.802;4.350;2022-09-13T03:51:42;18.50;99.90
22491;DHT22;11412;50.802;4.350;2022-09-13T03:54:15;18.50;99.90
22491;DHT22;11412;50.802;4.350;2022-09-13T03:56:41;18.60;99.90
22491;DHT22;11412;50.802;4.350;2022-09-13T03:59:07;18.50;99.90
22491;DHT22;11412;50.802;4.350;2022-09-13T04:01:32;18.50;99.90
22491;DHT22;11412;50.802;4.350;2022-09-13T04:03:58;18.50;99.90
22491;DHT22;11412;50.802;4.350;2022-09-13T04:06:24;18.40;99.90
22491;DHT22;11412;50.802;4.350;2022-09-13T04:08:50;18.40;99.90
22491;DHT22;11412;50.802;4.350;2022-09-13T04:11:15;18.50;99.90
22491;DHT22;11412;50.802;4.350;2022-09-13T04:13:41;18.50;99.90
22491;DHT22;11412;50.802;4.350;2022-09-13T04:16:07;18.40;99.90
22491;DHT22;11412;50.802;4.350;2022-09-13T04:18:33;18.40;99.90
22491;DHT22;11412;50.802;4.350;2022-09-13T04:21:00;18.30;99.90
22491;DHT22;11412;50.802;4.350;2022-09-13T04:23:27;18.40;99.90
22491;DHT22;11412;50.802;4.350;2022-09-13T04:25:53;18.40;99.90
22491;DHT22;11412;50.802;4.350;2022-09-13T04:28:20;18.40;99.90
22491;DHT22;11412;50.802;4.350;2022-09-13T04:30:48;18.40;99.90
22491;DHT22;11412;50.802;4.350;2022-09-13T04:33:14;18.40;99.90
22491;DHT22;11412;50.802;4.350;2022-09-13T04:35:42;18.40;99.90
22491;DHT22;11412;50.802;4.350;2022-09-13T04:38:08;18.40;99.90
22491;DHT22;11412;50.802;4.350;2022-09-13T04:40:34;18.40;99.90
22491;DHT22;11412;50.802;4.350;2022-09-13T04:43:01;18.40;99.90
22491;DHT22;11412;50.802;4.350;2022-09-13T04:45:27;18.40;99.90
22491;DHT22;11412;50.802;4.350;2022-09-13T04:47:54;18.30;99.90
22491;DHT22;11412;50.802;4.350;2022-09-13T04:50:22;18.40;99.90
22491;DHT22;11412;50.802;4.350;2022-09-13T04:52:49;18.40;99.90
22491;DHT22;11412;50.802;4.350;2022-09-13T04:55:15;18.40;99.90
22491;DHT22;11412;50.802;4.350;2022-09-13T04:57:41;18.40;99.90
22491;DHT22;11412;50.802;4.350;2022-09-13T05:00:07;18.30;99.90
22491;DHT22;11412;50.802;4.350;2022-09-13T05:02:33;18.30;99.90
22491;DHT22;11412;50.802;4.350;2022-09-13T05:04:58;18.30;99.90
22491;DHT22;11412;50.802;4.350;2022-09-13T05:07:24;18.30;99.90
22491;DHT22;11412;50.802;4.350;2022-09-13T05:09:50;18.30;99.90
22491;DHT22;11412;50.802;4.350;2022-09-13T05:12:15;18.30;99.90
22491;DHT22;11412;50.802;4.350;2022-09-13T05:14:41;18.30;99.90
22491;DHT22;11412;50.802;4.350;2022-09-13T05:17:07;18.20;99.90
22491;DHT22;11412;50.802;4.350;2022-09-13T05:19:32;18.20;99.90
22491;DHT22;11412;50.802;4.350;2022-09-13T05:21:59;18.30;99.90
22491;DHT22;11412;50.802;4.350;2022-09-13T05:24:25;18.30;99.90
22491;DHT22;11412;50.802;4.350;2022-09-13T05:26:51;18.30;99.90
22491;DHT22;11412;50.802;4.350;2022-09-13T05:29:16;18.30;99.90
22491;DHT22;11412;50.802;4.350;2022-09-13T05:31:42;18.30;99.90
22491;DHT22;11412;50.802;4.350;2022-09-13T05:34:15;18.30;99.90
22491;DHT22;11412;50.802;4.350;2022-09-13T05:36:44;18.40;99.90
22491;DHT22;11412;50.802;4.350;2022-09-13T05:39:15;18.30;99.90
22491;DHT22;11412;50.802;4.350;2022-09-13T05:41:46;18.20;99.90
22491;DHT22;11412;50.802;4.350;2022-09-13T05:44:12;18.20;99.90
22491;DHT22;11412;50.802;4.350;2022-09-13T05:46:37;18.20;99.90
22491;DHT22;11412;50.802;4.350;2022-09-13T05:49:03;18.30;99.90
22491;DHT22;11412;50.802;4.350;2022-09-13T05:51:29;18.30;99.90
22491;DHT22;11412;50.802;4.350;2022-09-13T05:53:56;18.30;99.90
22491;DHT22;11412;50.802;4.350;2022-09-13T05:56:24;18.30;99.90
22491;DHT22;11412;50.802;4.350;2022-09-13T05:58:51;18.30;99.90
22491;DHT22;11412;50.802;4.350;2022-09-13T06:01:23;18.30;99.90
22491;DHT22;11412;50.802;4.350;2022-09-13T06:03:50;18.20;99.90
22491;DHT22;11412;50.802;4.350;2022-09-13T06:06:18;18.30;99.90
22491;DHT22;11412;50.802;4.350;2022-09-13T06:08:44;18.30;99.90
22491;DHT22;11412;50.802;4.350;2022-09-13T06:11:12;18.30;99.90
22491;DHT22;11412;50.802;4.350;2022-09-13T06:13:38;18.40;99.90
22491;DHT22;11412;50.802;4.350;2022-09-13T06:16:07;18.40;99.90
22491;DHT22;11412;50.802;4.350;2022-09-13T06:18:34;18.40;99.90
22491;DHT22;11412;50.802;4.350;2022-09-13T06:21:14;18.40;99.90
22491;DHT22;11412;50.802;4.350;2022-09-13T06:23:48;18.30;99.90
22491;DHT22;11412;50.802;4.350;2022-09-13T06:26:17;18.40;99.90
22491;DHT22;11412;50.802;4.350;2022-09-13T06:28:49;18.40;99.90
22491;DHT22;11412;50.802;4.350;2022-09-13T06:31:17;18.50;99.90
22491;DHT22;11412;50.802;4.350;2022-09-13T06:33:43;18.50;99.90
22491;DHT22;11412;50.802;4.350;2022-09-13T06:36:11;18.60;99.90
22491;DHT22;11412;50.802;4.350;2022-09-13T06:38:39;18.70;99.90
22491;DHT22;11412;50.802;4.350;2022-09-13T06:41:10;18.60;99.90
22491;DHT22;11412;50.802;4.350;2022-09-13T06:43:36;18.60;99.90
22491;DHT22;11412;50.802;4.350;2022-09-13T06:46:08;18.70;99.90
22491;DHT22;11412;50.802;4.350;2022-09-13T06:48:36;18.70;99.90
22491;DHT22;11412;50.802;4.350;2022-09-13T06:51:05;18.70;99.90
22491;DHT22;11412;50.802;4.350;2022-09-13T06:53:33;18.80;99.90
22491;DHT22;11412;50.802;4.350;2022-09-13T06:58:33;18.80;99.90
22491;DHT22;11412;50.802;4.350;2022-09-13T07:01:18;18.90;99.90
22491;DHT22;11412;50.802;4.350;2022-09-13T07:03:56;19.00;99.90
22491;DHT22;11412;50.802;4.350;2022-09-13T07:06:26;19.00;99.90
22491;DHT22;11412;50.802;4.350;2022-09-13T07:08:53;19.20;99.90
22491;DHT22;11412;50.802;4.350;2022-09-13T07:11:22;19.20;99.90
22491;DHT22;11412;50.802;4.350;2022-09-13T07:13:52;19.20;99.90
22491;DHT22;11412;50.802;4.350;2022-09-13T07:16:20;19.20;99.90
22491;DHT22;11412;50.802;4.350;2022-09-13T07:19:06;19.30;99.90
22491;DHT22;11412;50.802;4.350;2022-09-13T07:21:34;19.30;99.90
22491;DHT22;11412;50.802;4.350;2022-09-13T07:24:00;19.40;99.90
22491;DHT22;11412;50.802;4.350;2022-09-13T07:26:27;19.40;99.90
22491;DHT22;11412;50.802;4.350;2022-09-13T07:28:55;19.50;99.90
22491;DHT22;11412;50.802;4.350;2022-09-13T07:31:24;19.70;99.90
22491;DHT22;11412;50.802;4.350;2022-09-13T07:34:02;19.70;99.90
22491;DHT22;11412;50.802;4.350;2022-09-13T07:36:30;19.80;99.90
22491;DHT22;11412;50.802;4.350;2022-09-13T07:38:57;19.80;99.90
22491;DHT22;11412;50.802;4.350;2022-09-13T07:41:24;19.80;99.90
22491;DHT22;11412;50.802;4.350;2022-09-13T07:43:51;20.00;99.90
22491;DHT22;11412;50.802;4.350;2022-09-13T07:46:19;20.00;99.90
22491;DHT22;11412;50.802;4.350;2022-09-13T07:48:46;20.10;99.90
22491;DHT22;11412;50.802;4.350;2022-09-13T07:51:14;20.20;99.90
22491;DHT22;11412;50.802;4.350;2022-09-13T07:53:41;20.30;99.90
22491;DHT22;11412;50.802;4.350;2022-09-13T07:58:36;20.40;99.90
22491;DHT22;11412;50.802;4.350;2022-09-13T08:01:11;20.60;99.90
22491;DHT22;11412;50.802;4.350;2022-09-13T08:03:37;20.70;99.90
22491;DHT22;11412;50.802;4.350;2022-09-13T08:06:04;20.70;99.90
22491;DHT22;11412;50.802;4.350;2022-09-13T08:08:30;21.10;99.90
22491;DHT22;11412;50.802;4.350;2022-09-13T08:10:58;21.20;99.90
22491;DHT22;11412;50.802;4.350;2022-09-13T08:13:24;21.20;99.90
22491;DHT22;11412;50.802;4.350;2022-09-13T08:15:50;21.30;99.90
22491;DHT22;11412;50.802;4.350;2022-09-13T08:18:17;21.40;99.90
22491;DHT22;11412;50.802;4.350;2022-09-13T08:20:43;21.40;99.90
22491;DHT22;11412;50.802;4.350;2022-09-13T08:23:10;21.30;99.90
22491;DHT22;11412;50.802;4.350;2022-09-13T08:25:37;21.30;99.90
22491;DHT22;11412;50.802;4.350;2022-09-13T08:28:08;21.30;99.90
22491;DHT22;11412;50.802;4.350;2022-09-13T08:30:36;21.40;99.90
22491;DHT22;11412;50.802;4.350;2022-09-13T08:33:05;21.30;99.90
22491;DHT22;11412;50.802;4.350;2022-09-13T08:35:32;21.30;99.90
22491;DHT22;11412;50.802;4.350;2022-09-13T08:37:58;21.20;99.90
22491;DHT22;11412;50.802;4.350;2022-09-13T08:40:27;21.30;99.90
22491;DHT22;11412;50.802;4.350;2022-09-13T08:45:25;21.30;99.90
22491;DHT22;11412;50.802;4.350;2022-09-13T08:48:28;21.30;99.90
22491;DHT22;11412;50.802;4.350;2022-09-13T08:50:46;21.40;99.90
22491;DHT22;11412;50.802;4.350;2022-09-13T08:53:26;21.60;99.90
22491;DHT22;11412;50.802;4.350;2022-09-13T09:04:32;21.60;99.90
22491;DHT22;11412;50.802;4.350;2022-09-13T09:07:25;21.80;99.90
22491;DHT22;11412;50.802;4.350;2022-09-13T09:09:54;21.90;99.90
22491;DHT22;11412;50.802;4.350;2022-09-13T09:12:38;22.20;99.90
22491;DHT22;11412;50.802;4.350;2022-09-13T09:17:49;22.60;99.90
22491;DHT22;11412;50.802;4.350;2022-09-13T09:20:22;22.90;99.90
22491;DHT22;11412;50.802;4.350;2022-09-13T09:22:50;23.00;99.90
22491;DHT22;11412;50.802;4.350;2022-09-13T09:25:17;23.10;99.90
22491;DHT22;11412;50.802;4.350;2022-09-13T09:27:44;23.40;99.90
22491;DHT22;11412;50.802;4.350;2022-09-13T09:30:13;23.60;99.90
22491;DHT22;11412;50.802;4.350;2022-09-13T09:32:46;23.70;99.90
22491;DHT22;11412;50.802;4.350;2022-09-13T09:40:45;23.50;99.90
22491;DHT22;11412;50.802;4.350;2022-09-13T09:43:19;23.40;99.90
22491;DHT22;11412;50.802;4.350;2022-09-13T09:45:51;23.60;99.90
22491;DHT22;11412;50.802;4.350;2022-09-13T09:48:21;23.50;99.90
22491;DHT22;11412;50.802;4.350;2022-09-13T09:50:51;23.60;99.90
22491;DHT22;11412;50.802;4.350;2022-09-13T09:53:21;23.50;99.90
22491;DHT22;11412;50.802;4.350;2022-09-13T10:01:00;23.50;99.90
22491;DHT22;11412;50.802;4.350;2022-09-13T10:03:31;23.60;99.90
22491;DHT22;11412;50.802;4.350;2022-09-13T10:06:17;23.60;99.90
22491;DHT22;11412;50.802;4.350;2022-09-13T10:09:06;23.80;99.90
22491;DHT22;11412;50.802;4.350;2022-09-13T10:11:53;23.80;99.90
22491;DHT22;11412;50.802;4.350;2022-09-13T10:17:19;24.10;99.90
22491;DHT22;11412;50.802;4.350;2022-09-13T10:19:57;24.10;99.90
22491;DHT22;11412;50.802;4.350;2022-09-13T10:22:24;24.00;99.90
22491;DHT22;11412;50.802;4.350;2022-09-13T10:24:51;23.90;99.90
22491;DHT22;11412;50.802;4.350;2022-09-13T10:27:31;24.00;99.90
22491;DHT22;11412;50.802;4.350;2022-09-13T10:30:01;23.80;99.90
22491;DHT22;11412;50.802;4.350;2022-09-13T10:32:28;23.60;99.90
22491;DHT22;11412;50.802;4.350;2022-09-13T10:34:55;23.50;99.90
22491;DHT22;11412;50.802;4.350;2022-09-13T10:37:27;23.60;99.90
22491;DHT22;11412;50.802;4.350;2022-09-13T10:40:06;23.60;99.90
22491;DHT22;11412;50.802;4.350;2022-09-13T10:42:34;23.50;99.90
22491;DHT22;11412;50.802;4.350;2022-09-13T10:45:06;23.40;99.90
22491;DHT22;11412;50.802;4.350;2022-09-13T10:48:09;23.40;99.90
22491;DHT22;11412;50.802;4.350;2022-09-13T10:50:36;23.50;99.90
22491;DHT22;11412;50.802;4.350;2022-09-13T10:53:02;23.50;99.90
22491;DHT22;11412;50.802;4.350;2022-09-13T10:55:38;23.50;99.90
22491;DHT22;11412;50.802;4.350;2022-09-13T11:00:36;23.40;99.90
22491;DHT22;11412;50.802;4.350;2022-09-13T11:06:41;23.50;99.90
22491;DHT22;11412;50.802;4.350;2022-09-13T11:09:23;23.50;99.90
22491;DHT22;11412;50.802;4.350;2022-09-13T11:12:02;23.40;99.90
22491;DHT22;11412;50.802;4.350;2022-09-13T11:14:54;23.30;99.90
22491;DHT22;11412;50.802;4.350;2022-09-13T11:20:30;23.30;99.90
22491;DHT22;11412;50.802;4.350;2022-09-13T11:31:27;23.50;99.90
22491;DHT22;11412;50.802;4.350;2022-09-13T11:34:19;23.50;99.90
22491;DHT22;11412;50.802;4.350;2022-09-13T11:36:58;23.50;99.90
22491;DHT22;11412;50.802;4.350;2022-09-13T11:44:51;23.60;99.90
22491;DHT22;11412;50.802;4.350;2022-09-13T11:47:30;23.60;99.90
22491;DHT22;11412;50.802;4.350;2022-09-13T11:50:24;23.70;99.90
22491;DHT22;11412;50.802;4.350;2022-09-13T11:55:48;23.60;99.90
22491;DHT22;11412;50.802;4.350;2022-09-13T11:58:33;23.60;99.90
22491;DHT22;11412;50.802;4.350;2022-09-13T12:01:09;23.60;99.90
22491;DHT22;11412;50.802;4.350;2022-09-13T12:06:26;23.60;99.90
22491;DHT22;11412;50.802;4.350;2022-09-13T12:08:58;23.50;99.90
22491;DHT22;11412;50.802;4.350;2022-09-13T12:11:33;23.50;99.90
22491;DHT22;11412;50.802;4.350;2022-09-13T12:14:05;23.50;99.90
22491;DHT22;11412;50.802;4.350;2022-09-13T12:16:41;23.40;99.90
22491;DHT22;11412;50.802;4.350;2022-09-13T12:21:48;23.40;99.90
22491;DHT22;11412;50.802;4.350;2022-09-13T12:24:38;23.30;99.90
22491;DHT22;11412;50.802;4.350;2022-09-13T12:27:08;23.40;99.90
22491;DHT22;11412;50.802;4.350;2022-09-13T12:30:02;23.40;99.90
22491;DHT22;11412;50.802;4.350;2022-09-13T12:32:30;23.40;99.90
22491;DHT22;11412;50.802;4.350;2022-09-13T12:35:03;23.50;99.90
22491;DHT22;11412;50.802;4.350;2022-09-13T12:41:16;23.60;99.90
22491;DHT22;11412;50.802;4.350;2022-09-13T12:55:59;23.60;99.90
22491;DHT22;11412;50.802;4.350;2022-09-13T12:58:19;23.60;99.90
22491;DHT22;11412;50.802;4.350;2022-09-13T13:03:56;23.60;99.90
22491;DHT22;11412;50.802;4.350;2022-09-13T13:06:38;23.60;99.90
22491;DHT22;11412;50.802;4.350;2022-09-13T13:12:00;23.70;99.90
22491;DHT22;11412;50.802;4.350;2022-09-13T13:17:36;23.70;99.90
22491;DHT22;11412;50.802;4.350;2022-09-13T13:23:44;23.60;99.90
22491;DHT22;11412;50.802;4.350;2022-09-13T13:34:00;23.60;99.90
22491;DHT22;11412;50.802;4.350;2022-09-13T13:36:46;23.60;99.90
22491;DHT22;11412;50.802;4.350;2022-09-13T13:41:56;23.50;99.90
22491;DHT22;11412;50.802;4.350;2022-09-13T13:46:49;23.30;99.90
22491;DHT22;11412;50.802;4.350;2022-09-13T13:57:31;23.20;99.90
22491;DHT22;11412;50.802;4.350;2022-09-13T14:00:18;23.30;99.90
22491;DHT22;11412;50.802;4.350;2022-09-13T14:03:08;23.20;99.90
22491;DHT22;11412;50.802;4.350;2022-09-13T14:06:00;23.20;99.90
22491;DHT22;11412;50.802;4.350;2022-09-13T14:11:12;23.10;99.90
22491;DHT22;11412;50.802;4.350;2022-09-13T14:19:45;23.00;99.90
22491;DHT22;11412;50.802;4.350;2022-09-13T14:22:15;23.00;99.90
22491;DHT22;11412;50.802;4.350;2022-09-13T14:24:48;22.90;99.90
22491;DHT22;11412;50.802;4.350;2022-09-13T14:27:20;22.90;99.90
22491;DHT22;11412;50.802;4.350;2022-09-13T14:29:49;22.90;99.90
22491;DHT22;11412;50.802;4.350;2022-09-13T14:32:19;22.90;99.90
22491;DHT22;11412;50.802;4.350;2022-09-13T14:35:03;22.60;99.90
22491;DHT22;11412;50.802;4.350;2022-09-13T14:37:36;22.50;99.90
22491;DHT22;11412;50.802;4.350;2022-09-13T14:42:45;22.50;99.90
22491;DHT22;11412;50.802;4.350;2022-09-13T14:45:13;22.60;99.90
22491;DHT22;11412;50.802;4.350;2022-09-13T14:47:56;22.50;99.90
22491;DHT22;11412;50.802;4.350;2022-09-13T14:50:26;22.60;99.90
22491;DHT22;11412;50.802;4.350;2022-09-13T14:52:59;22.50;99.90
22491;DHT22;11412;50.802;4.350;2022-09-13T14:55:30;22.60;99.90
22491;DHT22;11412;50.802;4.350;2022-09-13T14:58:00;22.50;99.90
22491;DHT22;11412;50.802;4.350;2022-09-13T15:00:31;22.60;99.90
22491;DHT22;11412;50.802;4.350;2022-09-13T15:03:01;22.50;99.90
22491;DHT22;11412;50.802;4.350;2022-09-13T15:05:32;22.50;99.90
22491;DHT22;11412;50.802;4.350;2022-09-13T15:07:58;22.40;99.90
22491;DHT22;11412;50.802;4.350;2022-09-13T15:10:27;22.50;99.90
22491;DHT22;11412;50.802;4.350;2022-09-13T15:18:02;22.30;99.90
22491;DHT22;11412;50.802;4.350;2022-09-13T15:20:52;22.30;99.90
22491;DHT22;11412;50.802;4.350;2022-09-13T15:23:28;22.20;99.90
22491;DHT22;11412;50.802;4.350;2022-09-13T15:26:17;22.20;99.90
22491;DHT22;11412;50.802;4.350;2022-09-13T15:31:17;22.20;99.90
22491;DHT22;11412;50.802;4.350;2022-09-13T15:33:44;22.20;99.90
22491;DHT22;11412;50.802;4.350;2022-09-13T15:41:20;22.10;99.90
22491;DHT22;11412;50.802;4.350;2022-09-13T15:43:49;22.10;99.90
22491;DHT22;11412;50.802;4.350;2022-09-13T15:46:15;22.20;99.90
22491;DHT22;11412;50.802;4.350;2022-09-13T15:48:52;22.20;99.90
22491;DHT22;11412;50.802;4.350;2022-09-13T15:51:18;22.10;99.90
22491;DHT22;11412;50.802;4.350;2022-09-13T15:53:45;22.00;99.90
22491;DHT22;11412;50.802;4.350;2022-09-13T15:56:20;22.00;99.90
22491;DHT22;11412;50.802;4.350;2022-09-13T15:58:46;22.00;99.90
22491;DHT22;11412;50.802;4.350;2022-09-13T16:01:13;22.00;99.90
22491;DHT22;11412;50.802;4.350;2022-09-13T16:03:39;22.00;99.90
22491;DHT22;11412;50.802;4.350;2022-09-13T16:06:06;22.00;99.90
22491;DHT22;11412;50.802;4.350;2022-09-13T16:08:34;22.10;99.90
22491;DHT22;11412;50.802;4.350;2022-09-13T16:11:00;22.00;99.90
22491;DHT22;11412;50.802;4.350;2022-09-13T16:13:26;21.90;99.90
22491;DHT22;11412;50.802;4.350;2022-09-13T16:15:51;21.90;99.90
22491;DHT22;11412;50.802;4.350;2022-09-13T16:18:17;21.90;99.90
22491;DHT22;11412;50.802;4.350;2022-09-13T16:20:43;21.90;99.90
22491;DHT22;11412;50.802;4.350;2022-09-13T16:23:09;21.80;99.90
22491;DHT22;11412;50.802;4.350;2022-09-13T16:25:35;21.80;99.90
22491;DHT22;11412;50.802;4.350;2022-09-13T16:28:03;21.80;99.90
22491;DHT22;11412;50.802;4.350;2022-09-13T16:30:28;21.60;99.90
22491;DHT22;11412;50.802;4.350;2022-09-13T16:32:56;21.60;99.90
22491;DHT22;11412;50.802;4.350;2022-09-13T16:35:22;21.50;99.90
22491;DHT22;11412;50.802;4.350;2022-09-13T16:37:48;21.40;99.90
22491;DHT22;11412;50.802;4.350;2022-09-13T16:40:16;21.40;99.90
22491;DHT22;11412;50.802;4.350;2022-09-13T16:42:43;21.30;99.90
22491;DHT22;11412;50.802;4.350;2022-09-13T16:45:09;21.30;99.90
22491;DHT22;11412;50.802;4.350;2022-09-13T16:47:35;21.30;99.90
22491;DHT22;11412;50.802;4.350;2022-09-13T16:50:02;21.10;99.90
22491;DHT22;11412;50.802;4.350;2022-09-13T16:52:27;21.00;99.90
22491;DHT22;11412;50.802;4.350;2022-09-13T16:54:53;21.10;99.90
22491;DHT22;11412;50.802;4.350;2022-09-13T16:57:20;20.90;99.90
22491;DHT22;11412;50.802;4.350;2022-09-13T16:59:46;20.80;99.90
22491;DHT22;11412;50.802;4.350;2022-09-13T17:02:13;20.80;99.90
22491;DHT22;11412;50.802;4.350;2022-09-13T17:04:38;20.70;99.90
22491;DHT22;11412;50.802;4.350;2022-09-13T17:07:04;20.60;99.90
22491;DHT22;11412;50.802;4.350;2022-09-13T17:09:32;20.50;99.90
22491;DHT22;11412;50.802;4.350;2022-09-13T17:11:58;20.40;99.90
22491;DHT22;11412;50.802;4.350;2022-09-13T17:14:24;20.50;99.90
22491;DHT22;11412;50.802;4.350;2022-09-13T17:16:52;20.40;99.90
22491;DHT22;11412;50.802;4.350;2022-09-13T17:19:20;20.30;99.90
22491;DHT22;11412;50.802;4.350;2022-09-13T17:21:46;20.20;99.90
22491;DHT22;11412;50.802;4.350;2022-09-13T17:24:12;20.20;99.90
22491;DHT22;11412;50.802;4.350;2022-09-13T17:26:38;20.20;99.90
22491;DHT22;11412;50.802;4.350;2022-09-13T17:29:03;20.20;99.90
22491;DHT22;11412;50.802;4.350;2022-09-13T17:31:29;20.20;99.90
22491;DHT22;11412;50.802;4.350;2022-09-13T17:33:55;20.10;99.90
22491;DHT22;11412;50.802;4.350;2022-09-13T17:36:21;20.20;99.90
22491;DHT22;11412;50.802;4.350;2022-09-13T17:38:47;20.10;99.90
22491;DHT22;11412;50.802;4.350;2022-09-13T17:41:17;20.10;99.90
22491;DHT22;11412;50.802;4.350;2022-09-13T17:43:44;20.00;99.90
22491;DHT22;11412;50.802;4.350;2022-09-13T17:48:38;20.10;99.90
22491;DHT22;11412;50.802;4.350;2022-09-13T17:51:06;20.00;99.90
22491;DHT22;11412;50.802;4.350;2022-09-13T17:53:41;20.00;99.90
22491;DHT22;11412;50.802;4.350;2022-09-13T17:56:07;20.00;99.90
22491;DHT22;11412;50.802;4.350;2022-09-13T17:58:34;19.90;99.90
22491;DHT22;11412;50.802;4.350;2022-09-13T18:01:05;19.90;99.90
22491;DHT22;11412;50.802;4.350;2022-09-13T18:03:31;19.90;99.90
22491;DHT22;11412;50.802;4.350;2022-09-13T18:05:58;20.00;99.90
22491;DHT22;11412;50.802;4.350;2022-09-13T18:08:26;20.00;99.90
22491;DHT22;11412;50.802;4.350;2022-09-13T18:11:07;19.90;99.90
22491;DHT22;11412;50.802;4.350;2022-09-13T18:13:34;19.90;99.90
22491;DHT22;11412;50.802;4.350;2022-09-13T18:16:03;19.90;99.90
22491;DHT22;11412;50.802;4.350;2022-09-13T18:18:29;19.80;99.90
22491;DHT22;11412;50.802;4.350;2022-09-13T18:20:55;19.70;99.90
22491;DHT22;11412;50.802;4.350;2022-09-13T18:23:25;19.80;99.90
22491;DHT22;11412;50.802;4.350;2022-09-13T18:26:07;19.80;99.90
22491;DHT22;11412;50.802;4.350;2022-09-13T18:28:34;19.70;99.90
22491;DHT22;11412;50.802;4.350;2022-09-13T18:31:01;19.70;99.90
22491;DHT22;11412;50.802;4.350;2022-09-13T18:33:30;19.70;99.90
22491;DHT22;11412;50.802;4.350;2022-09-13T18:36:10;19.70;99.90
22491;DHT22;11412;50.802;4.350;2022-09-13T18:38:45;19.70;99.90
22491;DHT22;11412;50.802;4.350;2022-09-13T18:41:19;19.70;99.90
22491;DHT22;11412;50.802;4.350;2022-09-13T18:43:47;19.70;99.90
22491;DHT22;11412;50.802;4.350;2022-09-13T18:46:15;19.60;99.90
22491;DHT22;11412;50.802;4.350;2022-09-13T18:48:43;19.70;99.90
22491;DHT22;11412;50.802;4.350;2022-09-13T18:51:11;19.70;99.90
22491;DHT22;11412;50.802;4.350;2022-09-13T18:53:38;19.70;99.90
22491;DHT22;11412;50.802;4.350;2022-09-13T18:56:06;19.70;99.90
22491;DHT22;11412;50.802;4.350;2022-09-13T18:58:33;19.70;99.90
22491;DHT22;11412;50.802;4.350;2022-09-13T19:03:38;19.60;99.90
22491;DHT22;11412;50.802;4.350;2022-09-13T19:06:08;19.60;99.90
22491;DHT22;11412;50.802;4.350;2022-09-13T19:08:34;19.80;99.90
22491;DHT22;11412;50.802;4.350;2022-09-13T19:11:00;19.70;99.90